createdAt,value
2018-04-15T00:00:40.398Z,60.70
2018-04-15T00:03:09.149Z,61.50
2018-04-15T00:05:37.795Z,61.40
2018-04-15T00:08:06.510Z,61.50
2018-04-15T00:10:42.740Z,62.40
2018-04-15T00:13:13.151Z,60.90
2018-04-15T00:15:42.320Z,60.80
2018-04-15T00:18:11.010Z,60.00
2018-04-15T00:20:39.776Z,60.80
2018-04-15T00:23:08.339Z,61.30
2018-04-15T00:25:37.689Z,62.20
2018-04-15T00:28:06.322Z,62.20
2018-04-15T00:30:35.098Z,62.80
2018-04-15T00:33:03.880Z,62.70
2018-04-15T00:35:33.704Z,63.40
2018-04-15T00:38:04.301Z,63.70
2018-04-15T00:40:33.170Z,63.70
2018-04-15T00:43:02.574Z,63.80
2018-04-15T00:45:32.173Z,64.20
2018-04-15T00:48:00.670Z,64.30
2018-04-15T00:50:29.578Z,64.20
2018-04-15T00:52:58.262Z,64.10
2018-04-15T00:55:26.904Z,63.40
2018-04-15T00:57:55.568Z,63.20
2018-04-15T01:00:24.330Z,62.80
2018-04-15T01:02:53.103Z,62.10
2018-04-15T01:05:21.644Z,61.40
2018-04-15T01:07:50.319Z,61.20
2018-04-15T01:10:19.028Z,61.00
2018-04-15T01:12:47.525Z,61.00
2018-04-15T01:15:16.751Z,60.80
2018-04-15T01:17:46.371Z,60.80
2018-04-15T01:20:14.980Z,61.10
2018-04-15T01:22:43.797Z,61.80
2018-04-15T01:25:12.510Z,61.70
2018-04-15T01:27:41.160Z,62.00
2018-04-15T01:30:10.028Z,60.50
2018-04-15T01:32:38.710Z,59.60
2018-04-15T01:35:07.366Z,59.80
2018-04-15T01:37:36.051Z,57.80
2018-04-15T01:40:04.752Z,57.30
2018-04-15T01:42:33.507Z,56.80
2018-04-15T01:45:02.315Z,56.80
2018-04-15T01:47:31.960Z,56.30
2018-04-15T01:50:01.908Z,56.00
2018-04-15T01:52:32.027Z,55.70
2018-04-15T01:55:00.795Z,55.70
2018-04-15T01:57:29.603Z,57.00
2018-04-15T01:59:58.407Z,57.50
2018-04-15T02:02:27.314Z,57.20
2018-04-15T02:04:56.131Z,57.50
2018-04-15T02:07:24.669Z,57.50
2018-04-15T02:09:53.449Z,58.00
2018-04-15T02:12:22.153Z,58.10
2018-04-15T02:14:51.070Z,58.50
2018-04-15T02:17:20.552Z,58.80
2018-04-15T02:19:50.499Z,57.90
2018-04-15T02:22:19.815Z,57.60
2018-04-15T02:24:48.668Z,57.60
2018-04-15T02:27:17.253Z,57.70
2018-04-15T02:29:45.977Z,57.40
2018-04-15T02:32:14.810Z,57.00
2018-04-15T02:34:43.543Z,57.00
2018-04-15T02:37:13.003Z,58.00
2018-04-15T02:39:41.701Z,57.70
2018-04-15T02:42:10.499Z,57.50
2018-04-15T02:44:39.265Z,58.00
2018-04-15T02:47:08.534Z,57.00
2018-04-15T02:49:38.354Z,57.50
2018-04-15T02:52:07.806Z,57.60
2018-04-15T02:54:36.419Z,57.50
2018-04-15T02:57:05.171Z,57.50
2018-04-15T02:59:33.935Z,57.70
2018-04-15T03:02:02.567Z,58.10
2018-04-15T03:04:31.343Z,58.40
2018-04-15T03:07:00.171Z,59.00
2018-04-15T03:09:28.929Z,59.70
2018-04-15T03:11:58.446Z,60.90
2018-04-15T03:14:27.270Z,60.70
2018-04-15T03:16:57.302Z,59.10
2018-04-15T03:19:27.500Z,59.20
2018-04-15T03:21:56.066Z,59.10
2018-04-15T03:24:25.614Z,58.90
2018-04-15T03:26:54.360Z,58.80
2018-04-15T03:29:22.799Z,58.50
2018-04-15T03:31:52.467Z,56.40
2018-04-15T03:34:21.096Z,56.40
2018-04-15T03:36:49.879Z,56.20
2018-04-15T03:39:18.454Z,56.60
2018-04-15T03:41:47.249Z,56.50
2018-04-15T03:44:16.708Z,56.40
2018-04-15T03:46:45.874Z,56.40
2018-04-15T03:49:15.044Z,55.90
2018-04-15T03:51:43.910Z,56.80
2018-04-15T03:54:12.676Z,57.70
2018-04-15T03:56:41.483Z,56.80
2018-04-15T03:59:10.225Z,56.90
2018-04-15T04:01:38.926Z,56.90
2018-04-15T04:04:07.651Z,56.60
2018-04-15T04:06:36.339Z,56.90
2018-04-15T04:09:05.094Z,57.30
2018-04-15T04:11:34.577Z,57.60
2018-04-15T04:14:03.257Z,57.70
2018-04-15T04:16:34.016Z,57.60
2018-04-15T04:19:20.711Z,57.10
2018-04-15T04:22:07.338Z,56.90
2018-04-15T04:24:55.058Z,56.40
2018-04-15T04:27:23.855Z,55.90
2018-04-15T04:29:52.485Z,55.40
2018-04-15T04:32:21.207Z,55.50
2018-04-15T04:34:50.601Z,54.90
2018-04-15T04:37:19.748Z,54.60
2018-04-15T04:39:48.527Z,54.30
2018-04-15T04:42:17.347Z,54.20
2018-04-15T04:44:46.341Z,54.10
2018-04-15T04:47:14.860Z,53.80
2018-04-15T04:49:43.660Z,53.50
2018-04-15T04:52:12.369Z,52.80
2018-04-15T04:54:40.859Z,52.90
2018-04-15T04:57:09.697Z,53.00
2018-04-15T04:59:38.313Z,52.50
2018-04-15T05:02:07.098Z,52.50
2018-04-15T05:04:35.912Z,53.80
2018-04-15T05:07:05.132Z,55.20
2018-04-15T05:09:34.501Z,56.30
2018-04-15T05:12:03.460Z,58.10
2018-04-15T05:14:32.165Z,58.50
2018-04-15T05:17:00.918Z,59.10
2018-04-15T05:19:29.697Z,61.30
2018-04-15T05:21:58.655Z,61.30
2018-04-15T05:24:28.017Z,63.30
2018-04-15T05:26:56.670Z,63.30
2018-04-15T05:29:25.604Z,62.20
2018-04-15T05:31:55.082Z,60.90
2018-04-15T05:34:23.744Z,60.90
2018-04-15T05:36:53.418Z,59.80
2018-04-15T05:39:22.756Z,59.70
2018-04-15T05:41:51.921Z,60.60
2018-04-15T05:44:20.747Z,61.50
2018-04-15T05:46:49.359Z,61.30
2018-04-15T05:49:18.177Z,62.20
2018-04-15T05:51:47.693Z,62.60
2018-04-15T05:54:16.437Z,61.40
2018-04-15T05:56:45.175Z,61.50
2018-04-15T05:59:14.637Z,63.00
2018-04-15T06:01:43.453Z,63.00
2018-04-15T06:04:12.268Z,64.10
2018-04-15T06:06:41.039Z,65.10
2018-04-15T06:09:11.392Z,65.50
2018-04-15T06:11:40.273Z,65.00
2018-04-15T06:14:09.041Z,64.90
2018-04-15T06:16:37.752Z,64.20
2018-04-15T06:19:06.341Z,64.60
2018-04-15T06:21:35.155Z,66.00
2018-04-15T06:24:03.971Z,67.50
2018-04-15T06:26:32.540Z,68.50
2018-04-15T06:29:02.088Z,66.40
2018-04-15T06:31:30.816Z,66.30
2018-04-15T06:33:59.628Z,64.40
2018-04-15T06:36:28.426Z,61.80
2018-04-15T06:38:57.574Z,60.50
2018-04-15T06:41:27.439Z,59.20
2018-04-15T06:43:57.229Z,57.30
2018-04-15T06:46:26.077Z,56.70
2018-04-15T06:48:55.903Z,55.00
2018-04-15T06:51:24.873Z,54.40
2018-04-15T06:53:53.695Z,52.40
2018-04-15T06:56:24.227Z,53.30
2018-04-15T06:58:53.294Z,61.30
2018-04-15T07:01:23.684Z,61.70
2018-04-15T07:03:52.637Z,61.00
2018-04-15T07:06:22.011Z,60.30
2018-04-15T07:08:52.395Z,59.70
2018-04-15T07:11:22.025Z,59.00
2018-04-15T07:13:50.882Z,57.10
2018-04-15T07:16:20.421Z,56.30
2018-04-15T07:18:49.607Z,54.10
2018-04-15T07:21:19.081Z,54.40
2018-04-15T07:23:48.204Z,53.70
2018-04-15T07:26:17.180Z,54.00
2018-04-15T07:28:45.983Z,54.00
2018-04-15T07:31:16.558Z,54.00
2018-04-15T07:33:45.883Z,54.00
2018-04-15T07:36:16.265Z,53.10
2018-04-15T07:38:45.634Z,52.30
2018-04-15T07:41:14.835Z,52.00
2018-04-15T07:43:43.770Z,52.30
2018-04-15T07:46:13.293Z,50.40
2018-04-15T07:48:42.714Z,50.40
2018-04-15T07:51:12.553Z,50.90
2018-04-15T07:53:41.375Z,51.50
2018-04-15T07:56:10.257Z,52.70
2018-04-15T07:58:39.527Z,54.40
2018-04-15T08:01:08.488Z,56.00
2018-04-15T08:03:39.212Z,57.00
2018-04-15T08:06:09.006Z,56.90
2018-04-15T08:08:37.769Z,56.60
2018-04-15T08:11:06.481Z,55.20
2018-04-15T08:13:35.344Z,55.20
2018-04-15T08:16:04.254Z,55.20
2018-04-15T08:18:34.917Z,56.90
2018-04-15T08:21:03.983Z,57.70
2018-04-15T08:23:33.653Z,57.60
2018-04-15T08:26:04.059Z,57.60
2018-04-15T08:28:34.106Z,55.40
2018-04-15T08:31:03.962Z,55.40
2018-04-15T08:33:33.605Z,55.30
2018-04-15T08:36:02.435Z,55.20
2018-04-15T08:38:31.320Z,55.10
2018-04-15T08:41:00.838Z,55.20
2018-04-15T08:43:29.699Z,54.70
2018-04-15T08:45:58.525Z,54.40
2018-04-15T08:48:28.082Z,54.70
2018-04-15T08:50:57.824Z,54.70
2018-04-15T08:53:27.045Z,53.80
2018-04-15T08:55:55.730Z,54.60
2018-04-15T08:58:24.573Z,55.80
2018-04-15T09:00:54.228Z,52.90
2018-04-15T09:03:23.731Z,53.30
2018-04-15T09:05:53.460Z,54.60
2018-04-15T09:08:22.874Z,54.50
2018-04-15T09:10:51.679Z,53.60
2018-04-15T09:13:20.733Z,53.60
2018-04-15T09:15:49.706Z,54.10
2018-04-15T09:18:18.528Z,54.50
2018-04-15T09:20:47.134Z,54.10
2018-04-15T09:23:15.996Z,54.80
2018-04-15T09:25:44.740Z,53.10
2018-04-15T09:28:14.686Z,52.50
2018-04-15T09:33:43.500Z,52.30
2018-04-15T09:36:13.110Z,51.30
2018-04-15T09:38:42.791Z,48.20
2018-04-15T09:41:11.735Z,48.90
2018-04-15T09:43:41.301Z,47.40
2018-04-15T09:46:11.492Z,47.30
2018-04-15T09:48:42.792Z,47.00
2018-04-15T09:51:12.714Z,47.00
2018-04-15T09:53:41.547Z,48.10
2018-04-15T09:56:10.452Z,48.30
2018-04-15T09:58:39.261Z,49.50
2018-04-15T10:01:08.510Z,50.70
2018-04-15T10:03:38.245Z,52.10
2018-04-15T10:06:07.630Z,51.60
2018-04-15T10:08:36.573Z,50.50
2018-04-15T10:11:05.562Z,51.40
2018-04-15T10:13:34.689Z,51.70
2018-04-15T10:16:03.816Z,51.80
2018-04-15T10:18:33.719Z,51.50
2018-04-15T10:21:02.909Z,49.50
2018-04-15T10:23:32.544Z,50.40
2018-04-15T10:26:02.212Z,49.90
2018-04-15T10:28:31.544Z,49.90
2018-04-15T10:31:01.481Z,50.90
2018-04-15T10:33:30.757Z,49.40
2018-04-15T10:36:01.442Z,50.20
2018-04-15T10:38:30.421Z,50.20
2018-04-15T10:41:01.011Z,49.70
2018-04-15T10:43:29.889Z,49.60
2018-04-15T10:45:58.800Z,48.90
2018-04-15T10:48:28.312Z,49.10
2018-04-15T10:50:58.831Z,48.60
2018-04-15T10:53:27.705Z,48.50
2018-04-15T10:55:57.391Z,47.80
2018-04-15T10:58:27.747Z,47.90
2018-04-15T11:00:57.479Z,47.00
2018-04-15T11:03:27.108Z,46.10
2018-04-15T11:05:56.372Z,46.10
2018-04-15T11:08:25.118Z,45.20
2018-04-15T11:10:55.068Z,46.30
2018-04-15T11:13:24.780Z,46.40
2018-04-15T11:15:53.631Z,46.30
2018-04-15T11:18:22.720Z,47.60
2018-04-15T11:20:52.754Z,55.90
2018-04-15T11:23:22.471Z,55.90
2018-04-15T11:25:52.863Z,53.50
2018-04-15T11:28:21.876Z,52.70
2018-04-15T11:30:51.746Z,54.40
2018-04-15T11:33:20.555Z,52.20
2018-04-15T11:35:49.464Z,51.40
2018-04-15T11:38:19.687Z,51.70
2018-04-15T11:40:48.667Z,49.60
2018-04-15T11:43:18.253Z,52.30
2018-04-15T11:45:47.272Z,52.30
2018-04-15T11:48:16.060Z,51.10
2018-04-15T11:50:46.026Z,51.00
2018-04-15T11:53:15.480Z,50.60
2018-04-15T11:55:45.112Z,49.80
2018-04-15T11:58:14.623Z,49.40
2018-04-15T12:00:44.482Z,49.40
2018-04-15T12:03:13.921Z,45.70
2018-04-15T12:05:42.749Z,44.90
2018-04-15T12:08:12.470Z,45.20
2018-04-15T12:10:41.276Z,43.40
2018-04-15T12:13:10.032Z,46.90
2018-04-15T12:15:39.309Z,49.10
2018-04-15T12:18:08.526Z,48.60
2018-04-15T12:20:38.128Z,50.10
2018-04-15T12:23:07.784Z,46.90
2018-04-15T12:25:37.068Z,46.90
2018-04-15T12:28:05.948Z,48.70
2018-04-15T12:30:35.127Z,48.80
2018-04-15T12:33:04.476Z,47.90
2018-04-15T12:35:33.382Z,47.20
2018-04-15T12:38:03.660Z,46.60
2018-04-15T12:40:32.917Z,47.30
2018-04-15T12:43:03.096Z,46.70
2018-04-15T12:45:32.378Z,45.40
2018-04-15T12:48:02.807Z,44.50
2018-04-15T12:50:32.289Z,44.20
2018-04-15T12:53:01.611Z,43.00
2018-04-15T12:55:31.905Z,43.00
2018-04-15T12:58:00.821Z,42.90
2018-04-15T13:00:32.230Z,43.10
2018-04-15T13:03:01.352Z,43.10
2018-04-15T13:05:31.649Z,44.60
2018-04-15T13:08:00.678Z,45.90
2018-04-15T13:10:29.917Z,46.80
2018-04-15T13:13:00.112Z,48.60
2018-04-15T13:15:30.360Z,45.60
2018-04-15T13:18:03.762Z,45.60
2018-04-15T13:20:33.297Z,44.60
2018-04-15T13:23:03.019Z,45.40
2018-04-15T13:25:33.065Z,45.40
2018-04-15T13:28:03.670Z,45.90
2018-04-15T13:30:33.702Z,45.90
2018-04-15T13:33:03.920Z,46.90
2018-04-15T13:35:33.682Z,46.10
2018-04-15T13:38:02.585Z,45.30
2018-04-15T13:40:31.340Z,45.60
2018-04-15T13:43:00.835Z,45.80
2018-04-15T13:45:30.557Z,46.00
2018-04-15T13:48:01.047Z,45.90
2018-04-15T13:50:31.746Z,43.40
2018-04-15T13:53:01.193Z,43.40
2018-04-15T13:55:30.394Z,43.10
2018-04-15T13:58:00.016Z,44.50
2018-04-15T14:00:29.708Z,41.10
2018-04-15T14:02:59.253Z,42.10
2018-04-15T14:05:28.799Z,43.90
2018-04-15T14:07:58.278Z,45.40
2018-04-15T14:10:28.467Z,44.40
2018-04-15T14:12:58.787Z,44.40
2018-04-15T14:15:28.355Z,42.00
2018-04-15T14:17:57.664Z,40.80
2018-04-15T14:20:27.177Z,40.90
2018-04-15T14:22:56.628Z,40.90
2018-04-15T14:25:26.941Z,39.70
2018-04-15T14:27:57.254Z,39.70
2018-04-15T14:30:26.933Z,39.90
2018-04-15T14:32:56.305Z,40.20
2018-04-15T14:35:27.393Z,40.60
2018-04-15T14:37:56.234Z,40.60
2018-04-15T14:40:26.916Z,40.80
2018-04-15T14:42:58.892Z,41.60
2018-04-15T14:45:28.397Z,41.60
2018-04-15T14:47:58.178Z,41.60
2018-04-15T14:50:27.567Z,42.20
2018-04-15T14:52:56.912Z,42.00
2018-04-15T14:55:27.057Z,42.70
2018-04-15T14:57:56.562Z,42.80
2018-04-15T15:00:26.178Z,43.00
2018-04-15T15:02:55.816Z,43.40
2018-04-15T15:05:25.643Z,43.00
2018-04-15T15:07:55.082Z,43.10
2018-04-15T15:10:24.379Z,43.10
2018-04-15T15:12:54.307Z,42.90
2018-04-15T15:15:26.298Z,42.30
2018-04-15T15:17:55.823Z,42.30
2018-04-15T15:20:25.459Z,41.30
2018-04-15T15:22:55.683Z,39.40
2018-04-15T15:25:25.597Z,39.40
2018-04-15T15:27:55.082Z,38.60
2018-04-15T15:30:24.808Z,38.60
2018-04-15T15:32:55.043Z,39.80
2018-04-15T15:35:24.708Z,39.70
2018-04-15T15:37:54.586Z,40.80
2018-04-15T15:40:24.788Z,41.90
2018-04-15T15:42:54.687Z,40.70
2018-04-15T15:45:24.773Z,41.90
2018-04-15T15:47:54.809Z,41.90
2018-04-15T15:50:26.560Z,41.20
2018-04-15T15:52:56.209Z,41.70
2018-04-15T15:55:25.837Z,41.00
2018-04-15T15:57:56.933Z,41.30
2018-04-15T16:00:27.030Z,41.40
2018-04-15T16:02:56.858Z,41.40
2018-04-15T16:05:26.330Z,41.40
2018-04-15T16:07:55.798Z,42.30
2018-04-15T16:10:25.490Z,43.40
2018-04-15T16:12:54.606Z,44.80
2018-04-15T16:15:23.959Z,45.80
2018-04-15T16:17:53.449Z,46.40
2018-04-15T16:20:23.026Z,46.40
2018-04-15T16:22:52.405Z,47.50
2018-04-15T16:25:23.600Z,48.70
2018-04-15T16:27:53.211Z,49.10
2018-04-15T16:30:23.443Z,49.60
2018-04-15T16:32:53.074Z,49.50
2018-04-15T16:35:22.593Z,49.10
2018-04-15T16:37:52.112Z,49.40
2018-04-15T16:40:21.747Z,50.20
2018-04-15T16:42:51.477Z,45.80
2018-04-15T16:45:21.573Z,51.00
2018-04-15T16:47:51.303Z,51.00
2018-04-15T16:50:21.942Z,51.30
2018-04-15T16:52:51.938Z,49.40
2018-04-15T16:55:23.088Z,47.40
2018-04-15T16:57:52.634Z,47.40
2018-04-15T17:00:22.972Z,49.50
2018-04-15T17:02:52.335Z,49.50
2018-04-15T17:05:21.809Z,52.10
2018-04-15T17:07:51.351Z,53.30
2018-04-15T17:10:21.588Z,54.40
2018-04-15T17:12:51.225Z,54.40
2018-04-15T17:15:21.393Z,55.20
2018-04-15T17:17:51.810Z,55.30
2018-04-15T17:20:21.385Z,55.80
2018-04-15T17:22:50.841Z,56.70
2018-04-15T17:25:23.123Z,57.20
2018-04-15T17:27:52.817Z,56.80
2018-04-15T17:30:22.164Z,57.00
2018-04-15T17:32:51.608Z,57.30
2018-04-15T17:35:21.451Z,56.90
2018-04-15T17:37:51.051Z,56.70
2018-04-15T17:40:20.467Z,56.60
2018-04-15T17:42:50.014Z,54.60
2018-04-15T17:45:19.438Z,52.40
2018-04-15T17:47:49.266Z,52.10
2018-04-15T17:50:18.484Z,54.00
2018-04-15T17:52:48.030Z,57.20
2018-04-15T17:55:17.337Z,57.90
2018-04-15T17:57:47.622Z,58.40
2018-04-15T18:00:16.899Z,58.40
2018-04-15T18:02:46.853Z,59.00
2018-04-15T18:05:16.504Z,59.40
2018-04-15T18:07:45.845Z,59.50
2018-04-15T18:10:15.322Z,59.50
2018-04-15T18:12:45.045Z,59.10
2018-04-15T18:15:14.323Z,59.70
2018-04-15T18:17:43.800Z,59.80
2018-04-15T18:20:14.862Z,59.60
2018-04-15T18:22:45.105Z,60.30
2018-04-15T18:25:15.627Z,60.30
2018-04-15T18:27:46.039Z,60.80
2018-04-15T18:30:16.096Z,61.50
2018-04-15T18:32:45.653Z,62.10
2018-04-15T18:35:15.812Z,62.60
2018-04-15T18:37:47.445Z,63.10
2018-04-15T18:40:16.885Z,63.10
2018-04-15T18:42:47.951Z,63.10
2018-04-15T18:45:19.525Z,63.10
2018-04-15T18:47:49.545Z,63.10
2018-04-15T18:50:19.549Z,63.20
2018-04-15T18:52:49.026Z,63.40
2018-04-15T18:55:19.418Z,63.80
2018-04-15T18:57:48.959Z,63.80
2018-04-15T19:00:18.582Z,64.30
2018-04-15T19:02:48.058Z,65.00
2018-04-15T19:05:19.031Z,65.60
2018-04-15T19:07:48.527Z,66.30
2018-04-15T19:10:20.356Z,67.10
2018-04-15T19:12:50.697Z,67.10
2018-04-15T19:15:20.137Z,67.40
2018-04-15T19:17:49.655Z,67.60
2018-04-15T19:20:20.237Z,68.20
2018-04-15T19:22:49.789Z,68.50
2018-04-15T19:25:20.746Z,69.00
2018-04-15T19:27:51.348Z,69.60
2018-04-15T19:30:22.232Z,69.40
2018-04-15T19:32:52.248Z,70.10
2018-04-15T19:35:22.312Z,68.80
2018-04-15T19:37:51.915Z,68.60
2018-04-15T19:40:21.374Z,68.40
2018-04-15T19:42:51.047Z,67.90
2018-04-15T19:45:20.956Z,67.70
2018-04-15T19:47:51.097Z,67.80
2018-04-15T19:50:21.515Z,67.80
2018-04-15T19:52:50.726Z,68.10
2018-04-15T19:55:20.622Z,68.50
2018-04-15T19:57:50.909Z,69.20
2018-04-15T20:00:21.507Z,73.00
2018-04-15T20:02:51.556Z,72.90
2018-04-15T20:05:22.250Z,73.70
2018-04-15T20:07:52.764Z,74.20
2018-04-15T20:10:23.005Z,74.90
2018-04-15T20:12:52.391Z,75.30
2018-04-15T20:15:22.866Z,76.10
2018-04-15T20:17:52.850Z,76.10
2018-04-15T20:20:24.158Z,76.90
2018-04-15T20:22:53.842Z,78.90
2018-04-15T20:25:23.442Z,79.30
2018-04-15T20:27:53.648Z,79.70
2018-04-15T20:30:24.820Z,80.30
2018-04-15T20:32:54.028Z,80.30
2018-04-15T20:35:23.686Z,79.50
2018-04-15T20:37:53.252Z,78.10
2018-04-15T20:40:22.780Z,77.60
2018-04-15T20:42:52.339Z,77.50
2018-04-15T20:45:21.937Z,77.30
2018-04-15T20:47:51.672Z,77.70
2018-04-15T20:50:20.868Z,77.90
2018-04-15T20:52:51.075Z,78.10
2018-04-15T20:55:20.455Z,78.10
2018-04-15T20:57:49.930Z,78.30
2018-04-15T21:00:19.237Z,78.50
2018-04-15T21:02:48.854Z,78.80
2018-04-15T21:05:18.356Z,78.90
2018-04-15T21:07:47.746Z,79.30
2018-04-15T21:10:18.045Z,79.30
2018-04-15T21:12:49.500Z,81.20
2018-04-15T21:15:19.828Z,82.10
2018-04-15T21:17:50.402Z,81.90
2018-04-15T21:20:20.066Z,81.90
2018-04-15T21:22:49.514Z,81.40
2018-04-15T21:25:18.899Z,81.60
2018-04-15T21:27:48.368Z,81.50
2018-04-15T21:30:17.682Z,81.70
2018-04-15T21:32:47.419Z,81.50
2018-04-15T21:35:18.485Z,81.50
2018-04-15T21:37:48.702Z,81.30
2018-04-15T21:40:18.144Z,81.40
2018-04-15T21:42:48.502Z,81.20
2018-04-15T21:45:19.239Z,81.50
2018-04-15T21:47:48.923Z,81.40
2018-04-15T21:50:18.185Z,81.80
2018-04-15T21:52:47.984Z,83.40
2018-04-15T21:55:18.345Z,83.80
2018-04-15T21:57:48.440Z,83.70
2018-04-15T22:00:18.042Z,83.30
2018-04-15T22:02:47.020Z,83.30
2018-04-15T22:05:16.031Z,83.80
2018-04-15T22:07:44.834Z,82.60
2018-04-15T22:10:13.645Z,82.30
2018-04-15T22:12:42.400Z,82.50
2018-04-15T22:15:11.206Z,83.40
2018-04-15T22:17:40.938Z,83.30
2018-04-15T22:20:09.818Z,83.70
2018-04-15T22:22:38.615Z,85.50
2018-04-15T22:25:08.343Z,87.10
2018-04-15T22:27:38.291Z,87.80
2018-04-15T22:30:07.553Z,88.40
2018-04-15T22:32:36.264Z,89.10
2018-04-15T22:35:04.993Z,89.10
2018-04-15T22:37:33.833Z,88.80
2018-04-15T22:40:02.643Z,88.40
2018-04-15T22:42:31.463Z,88.60
2018-04-15T22:45:00.431Z,88.70
2018-04-15T22:47:30.512Z,89.00
2018-04-15T22:50:04.726Z,89.00
2018-04-15T22:52:33.881Z,89.30
2018-04-15T22:55:03.742Z,89.90
2018-04-15T22:57:33.203Z,89.30
2018-04-15T23:00:01.861Z,89.20
2018-04-15T23:02:31.014Z,88.50
2018-04-15T23:04:59.578Z,87.30
2018-04-15T23:07:28.411Z,86.80
2018-04-15T23:09:58.083Z,88.20
2018-04-15T23:12:27.037Z,88.10
2018-04-15T23:14:56.318Z,88.50
2018-04-15T23:17:25.015Z,88.20
2018-04-15T23:19:54.519Z,88.90
2018-04-15T23:22:24.597Z,90.40
2018-04-15T23:24:53.780Z,90.40
2018-04-15T23:27:22.673Z,90.60
2018-04-15T23:29:52.190Z,91.00
2018-04-15T23:32:21.014Z,90.90
2018-04-15T23:34:51.049Z,91.20
2018-04-15T23:37:20.611Z,91.20
2018-04-15T23:39:49.327Z,91.20
2018-04-15T23:42:18.024Z,91.10
2018-04-15T23:44:46.843Z,91.10
2018-04-15T23:47:15.655Z,91.10
2018-04-15T23:49:44.556Z,91.20
2018-04-15T23:52:13.747Z,91.10
2018-04-15T23:54:42.822Z,91.30
2018-04-15T23:57:12.226Z,91.50
2018-04-15T23:59:40.978Z,92.00
